sensor_id;sensor_type;location;lat;lon;timestamp;P1;durP1;ratioP1;P2;durP2;ratioP2
11303;SDS011;5707;49.588;12.148;2023-02-28T00:01:25;2.20;;;2.03;;
11303;SDS011;5707;49.588;12.148;2023-02-28T00:03:50;2.30;;;2.15;;
11303;SDS011;5707;49.588;12.148;2023-02-28T00:06:16;2.58;;;2.38;;
11303;SDS011;5707;49.588;12.148;2023-02-28T00:08:42;2.85;;;2.65;;
11303;SDS011;5707;49.588;12.148;2023-02-28T00:11:09;3.15;;;2.80;;
11303;SDS011;5707;49.588;12.148;2023-02-28T00:13:37;2.45;;;2.25;;
11303;SDS011;5707;49.588;12.148;2023-02-28T00:16:06;3.05;;;2.75;;
11303;SDS011;5707;49.588;12.148;2023-02-28T00:18:34;2.65;;;2.20;;
11303;SDS011;5707;49.588;12.148;2023-02-28T00:20:59;2.63;;;2.42;;
11303;SDS011;5707;49.588;12.148;2023-02-28T00:23:25;3.00;;;2.70;;
11303;SDS011;5707;49.588;12.148;2023-02-28T00:25:51;2.90;;;2.58;;
11303;SDS011;5707;49.588;12.148;2023-02-28T00:28:17;2.72;;;2.15;;
11303;SDS011;5707;49.588;12.148;2023-02-28T00:30:43;2.92;;;2.33;;
11303;SDS011;5707;49.588;12.148;2023-02-28T00:33:09;2.90;;;2.60;;
11303;SDS011;5707;49.588;12.148;2023-02-28T00:35:34;2.70;;;2.28;;
11303;SDS011;5707;49.588;12.148;2023-02-28T00:38:00;3.03;;;2.83;;
11303;SDS011;5707;49.588;12.148;2023-02-28T00:40:25;3.00;;;2.70;;
11303;SDS011;5707;49.588;12.148;2023-02-28T00:42:51;3.45;;;2.63;;
11303;SDS011;5707;49.588;12.148;2023-02-28T00:45:16;4.05;;;3.08;;
11303;SDS011;5707;49.588;12.148;2023-02-28T00:47:42;2.85;;;2.65;;
11303;SDS011;5707;49.588;12.148;2023-02-28T00:50:08;2.65;;;2.45;;
11303;SDS011;5707;49.588;12.148;2023-02-28T00:52:34;2.67;;;2.47;;
11303;SDS011;5707;49.588;12.148;2023-02-28T00:55:00;3.33;;;2.38;;
11303;SDS011;5707;49.588;12.148;2023-02-28T00:57:25;2.67;;;2.28;;
11303;SDS011;5707;49.588;12.148;2023-02-28T00:59:51;2.53;;;2.33;;
11303;SDS011;5707;49.588;12.148;2023-02-28T01:02:19;4.82;;;2.58;;
11303;SDS011;5707;49.588;12.148;2023-02-28T01:04:45;2.38;;;2.17;;
11303;SDS011;5707;49.588;12.148;2023-02-28T01:07:11;2.83;;;2.58;;
11303;SDS011;5707;49.588;12.148;2023-02-28T01:09:37;3.70;;;2.35;;
11303;SDS011;5707;49.588;12.148;2023-02-28T01:12:02;2.88;;;2.63;;
11303;SDS011;5707;49.588;12.148;2023-02-28T01:14:28;2.92;;;2.63;;
11303;SDS011;5707;49.588;12.148;2023-02-28T01:16:54;3.20;;;2.15;;
11303;SDS011;5707;49.588;12.148;2023-02-28T01:19:19;2.25;;;2.05;;
11303;SDS011;5707;49.588;12.148;2023-02-28T01:21:45;2.92;;;2.35;;
11303;SDS011;5707;49.588;12.148;2023-02-28T01:24:11;2.90;;;2.22;;
11303;SDS011;5707;49.588;12.148;2023-02-28T01:26:36;3.63;;;2.65;;
11303;SDS011;5707;49.588;12.148;2023-02-28T01:29:02;3.47;;;1.98;;
11303;SDS011;5707;49.588;12.148;2023-02-28T01:31:27;2.65;;;2.42;;
11303;SDS011;5707;49.588;12.148;2023-02-28T01:33:53;2.28;;;2.17;;
11303;SDS011;5707;49.588;12.148;2023-02-28T01:36:20;2.88;;;2.67;;
11303;SDS011;5707;49.588;12.148;2023-02-28T01:38:47;2.60;;;2.40;;
11303;SDS011;5707;49.588;12.148;2023-02-28T01:41:18;3.40;;;3.10;;
11303;SDS011;5707;49.588;12.148;2023-02-28T01:46:11;2.70;;;2.50;;
11303;SDS011;5707;49.588;12.148;2023-02-28T01:48:41;4.88;;;2.72;;
11303;SDS011;5707;49.588;12.148;2023-02-28T01:51:13;2.58;;;2.38;;
11303;SDS011;5707;49.588;12.148;2023-02-28T01:53:44;2.33;;;2.13;;
11303;SDS011;5707;49.588;12.148;2023-02-28T01:56:13;4.13;;;2.88;;
11303;SDS011;5707;49.588;12.148;2023-02-28T01:58:46;3.08;;;2.80;;
11303;SDS011;5707;49.588;12.148;2023-02-28T02:01:12;2.70;;;2.50;;
11303;SDS011;5707;49.588;12.148;2023-02-28T02:03:46;3.45;;;3.15;;
11303;SDS011;5707;49.588;12.148;2023-02-28T02:06:13;2.95;;;2.67;;
11303;SDS011;5707;49.588;12.148;2023-02-28T02:08:39;4.60;;;2.67;;
11303;SDS011;5707;49.588;12.148;2023-02-28T02:11:04;2.90;;;2.70;;
11303;SDS011;5707;49.588;12.148;2023-02-28T02:13:45;4.20;;;2.75;;
11303;SDS011;5707;49.588;12.148;2023-02-28T02:19:36;3.00;;;2.55;;
11303;SDS011;5707;49.588;12.148;2023-02-28T02:27:58;2.90;;;2.70;;
11303;SDS011;5707;49.588;12.148;2023-02-28T02:39:58;3.50;;;3.20;;
11303;SDS011;5707;49.588;12.148;2023-02-28T02:48:20;2.83;;;2.55;;
11303;SDS011;5707;49.588;12.148;2023-02-28T02:50:52;3.88;;;3.47;;
11303;SDS011;5707;49.588;12.148;2023-02-28T02:54:07;3.22;;;2.83;;
11303;SDS011;5707;49.588;12.148;2023-02-28T02:56:15;3.40;;;3.00;;
11303;SDS011;5707;49.588;12.148;2023-02-28T02:58:44;3.40;;;3.08;;
11303;SDS011;5707;49.588;12.148;2023-02-28T03:01:23;3.05;;;2.75;;
11303;SDS011;5707;49.588;12.148;2023-02-28T03:03:57;3.25;;;2.85;;
11303;SDS011;5707;49.588;12.148;2023-02-28T03:06:26;2.97;;;2.78;;
11303;SDS011;5707;49.588;12.148;2023-02-28T03:08:52;4.03;;;3.35;;
11303;SDS011;5707;49.588;12.148;2023-02-28T03:11:17;3.75;;;3.45;;
11303;SDS011;5707;49.588;12.148;2023-02-28T03:16:26;3.45;;;3.15;;
11303;SDS011;5707;49.588;12.148;2023-02-28T03:19:06;3.55;;;3.25;;
11303;SDS011;5707;49.588;12.148;2023-02-28T03:27:24;4.20;;;3.67;;
11303;SDS011;5707;49.588;12.148;2023-02-28T03:30:03;3.90;;;3.60;;
11303;SDS011;5707;49.588;12.148;2023-02-28T03:35:11;4.30;;;3.90;;
11303;SDS011;5707;49.588;12.148;2023-02-28T03:37:46;4.65;;;4.25;;
11303;SDS011;5707;49.588;12.148;2023-02-28T03:40:19;4.10;;;3.70;;
11303;SDS011;5707;49.588;12.148;2023-02-28T03:42:48;4.80;;;4.40;;
11303;SDS011;5707;49.588;12.148;2023-02-28T03:45:21;4.82;;;4.20;;
11303;SDS011;5707;49.588;12.148;2023-02-28T03:47:57;4.68;;;4.28;;
11303;SDS011;5707;49.588;12.148;2023-02-28T03:50:35;4.82;;;4.45;;
11303;SDS011;5707;49.588;12.148;2023-02-28T03:53:11;4.53;;;4.13;;
11303;SDS011;5707;49.588;12.148;2023-02-28T03:55:52;4.68;;;4.28;;
11303;SDS011;5707;49.588;12.148;2023-02-28T03:58:32;4.60;;;4.28;;
11303;SDS011;5707;49.588;12.148;2023-02-28T04:01:23;4.93;;;4.53;;
11303;SDS011;5707;49.588;12.148;2023-02-28T04:03:55;4.57;;;4.18;;
11303;SDS011;5707;49.588;12.148;2023-02-28T04:06:21;5.10;;;4.70;;
11303;SDS011;5707;49.588;12.148;2023-02-28T04:08:48;4.50;;;4.10;;
11303;SDS011;5707;49.588;12.148;2023-02-28T04:11:22;4.78;;;4.38;;
11303;SDS011;5707;49.588;12.148;2023-02-28T04:14:21;4.72;;;4.32;;
11303;SDS011;5707;49.588;12.148;2023-02-28T04:16:47;4.63;;;4.22;;
11303;SDS011;5707;49.588;12.148;2023-02-28T04:19:13;4.72;;;4.32;;
11303;SDS011;5707;49.588;12.148;2023-02-28T04:21:43;5.28;;;4.80;;
11303;SDS011;5707;49.588;12.148;2023-02-28T04:24:12;4.38;;;4.00;;
11303;SDS011;5707;49.588;12.148;2023-02-28T04:26:39;5.10;;;4.70;;
11303;SDS011;5707;49.588;12.148;2023-02-28T04:29:08;4.78;;;4.38;;
11303;SDS011;5707;49.588;12.148;2023-02-28T04:31:35;4.53;;;4.20;;
11303;SDS011;5707;49.588;12.148;2023-02-28T04:34:01;4.30;;;4.00;;
11303;SDS011;5707;49.588;12.148;2023-02-28T04:36:27;4.80;;;4.40;;
11303;SDS011;5707;49.588;12.148;2023-02-28T04:38:52;4.43;;;4.03;;
11303;SDS011;5707;49.588;12.148;2023-02-28T04:41:18;4.50;;;4.10;;
11303;SDS011;5707;49.588;12.148;2023-02-28T04:43:44;4.28;;;3.97;;
11303;SDS011;5707;49.588;12.148;2023-02-28T04:46:10;4.55;;;4.25;;
11303;SDS011;5707;49.588;12.148;2023-02-28T04:48:37;4.90;;;4.50;;
11303;SDS011;5707;49.588;12.148;2023-02-28T04:51:04;4.45;;;4.15;;
11303;SDS011;5707;49.588;12.148;2023-02-28T04:53:31;4.57;;;4.18;;
11303;SDS011;5707;49.588;12.148;2023-02-28T04:55:57;5.03;;;4.32;;
11303;SDS011;5707;49.588;12.148;2023-02-28T04:58:23;4.80;;;4.32;;
11303;SDS011;5707;49.588;12.148;2023-02-28T05:00:52;4.40;;;4.07;;
11303;SDS011;5707;49.588;12.148;2023-02-28T05:03:19;4.78;;;4.32;;
11303;SDS011;5707;49.588;12.148;2023-02-28T05:05:47;4.75;;;4.35;;
11303;SDS011;5707;49.588;12.148;2023-02-28T05:08:12;4.38;;;4.07;;
11303;SDS011;5707;49.588;12.148;2023-02-28T05:10:38;5.50;;;5.00;;
11303;SDS011;5707;49.588;12.148;2023-02-28T05:13:03;4.97;;;4.55;;
11303;SDS011;5707;49.588;12.148;2023-02-28T05:15:29;5.53;;;5.05;;
11303;SDS011;5707;49.588;12.148;2023-02-28T05:17:55;6.45;;;5.85;;
11303;SDS011;5707;49.588;12.148;2023-02-28T05:20:20;5.07;;;4.63;;
11303;SDS011;5707;49.588;12.148;2023-02-28T05:22:46;5.65;;;5.15;;
11303;SDS011;5707;49.588;12.148;2023-02-28T05:25:13;4.07;;;3.78;;
11303;SDS011;5707;49.588;12.148;2023-02-28T05:27:43;5.07;;;4.65;;
11303;SDS011;5707;49.588;12.148;2023-02-28T05:30:09;5.18;;;4.68;;
11303;SDS011;5707;49.588;12.148;2023-02-28T05:32:36;5.50;;;5.00;;
11303;SDS011;5707;49.588;12.148;2023-02-28T05:35:02;4.93;;;4.53;;
11303;SDS011;5707;49.588;12.148;2023-02-28T05:37:29;5.95;;;5.35;;
11303;SDS011;5707;49.588;12.148;2023-02-28T05:39:54;5.75;;;5.25;;
11303;SDS011;5707;49.588;12.148;2023-02-28T05:42:20;6.30;;;5.80;;
11303;SDS011;5707;49.588;12.148;2023-02-28T05:44:45;6.90;;;6.40;;
11303;SDS011;5707;49.588;12.148;2023-02-28T05:47:11;7.63;;;7.03;;
11303;SDS011;5707;49.588;12.148;2023-02-28T05:49:40;7.18;;;6.68;;
11303;SDS011;5707;49.588;12.148;2023-02-28T05:52:06;8.10;;;7.40;;
11303;SDS011;5707;49.588;12.148;2023-02-28T05:54:31;8.25;;;7.57;;
11303;SDS011;5707;49.588;12.148;2023-02-28T05:56:57;6.85;;;6.35;;
11303;SDS011;5707;49.588;12.148;2023-02-28T05:59:23;7.20;;;6.55;;
11303;SDS011;5707;49.588;12.148;2023-02-28T06:01:48;7.20;;;6.47;;
11303;SDS011;5707;49.588;12.148;2023-02-28T06:04:14;7.00;;;6.47;;
11303;SDS011;5707;49.588;12.148;2023-02-28T06:06:44;6.50;;;5.97;;
11303;SDS011;5707;49.588;12.148;2023-02-28T06:09:10;7.40;;;6.80;;
11303;SDS011;5707;49.588;12.148;2023-02-28T06:11:36;6.45;;;5.97;;
11303;SDS011;5707;49.588;12.148;2023-02-28T06:14:02;7.15;;;6.65;;
11303;SDS011;5707;49.588;12.148;2023-02-28T06:16:28;8.32;;;7.72;;
11303;SDS011;5707;49.588;12.148;2023-02-28T06:18:56;7.20;;;6.60;;
11303;SDS011;5707;49.588;12.148;2023-02-28T06:21:23;6.50;;;6.00;;
11303;SDS011;5707;49.588;12.148;2023-02-28T06:23:49;6.60;;;6.10;;
11303;SDS011;5707;49.588;12.148;2023-02-28T06:26:15;6.38;;;5.88;;
11303;SDS011;5707;49.588;12.148;2023-02-28T06:28:40;5.65;;;5.25;;
11303;SDS011;5707;49.588;12.148;2023-02-28T06:31:07;6.30;;;5.65;;
11303;SDS011;5707;49.588;12.148;2023-02-28T06:33:33;6.13;;;5.65;;
11303;SDS011;5707;49.588;12.148;2023-02-28T06:35:59;6.20;;;5.70;;
11303;SDS011;5707;49.588;12.148;2023-02-28T06:38:25;5.90;;;5.40;;
11303;SDS011;5707;49.588;12.148;2023-02-28T06:40:54;6.20;;;5.70;;
11303;SDS011;5707;49.588;12.148;2023-02-28T06:43:21;6.80;;;6.20;;
11303;SDS011;5707;49.588;12.148;2023-02-28T06:45:47;6.82;;;6.15;;
11303;SDS011;5707;49.588;12.148;2023-02-28T06:48:13;7.40;;;6.63;;
11303;SDS011;5707;49.588;12.148;2023-02-28T06:50:38;6.90;;;6.30;;
11303;SDS011;5707;49.588;12.148;2023-02-28T06:53:04;6.70;;;6.20;;
11303;SDS011;5707;49.588;12.148;2023-02-28T06:55:29;6.55;;;6.03;;
11303;SDS011;5707;49.588;12.148;2023-02-28T06:57:55;6.65;;;6.10;;
11303;SDS011;5707;49.588;12.148;2023-02-28T07:00:21;6.63;;;6.13;;
11303;SDS011;5707;49.588;12.148;2023-02-28T07:02:47;7.18;;;6.68;;
11303;SDS011;5707;49.588;12.148;2023-02-28T07:05:12;6.68;;;6.18;;
11303;SDS011;5707;49.588;12.148;2023-02-28T07:07:38;6.40;;;5.90;;
11303;SDS011;5707;49.588;12.148;2023-02-28T07:10:08;7.47;;;6.88;;
11303;SDS011;5707;49.588;12.148;2023-02-28T07:12:36;7.50;;;6.80;;
11303;SDS011;5707;49.588;12.148;2023-02-28T07:15:02;5.97;;;5.47;;
11303;SDS011;5707;49.588;12.148;2023-02-28T07:17:31;6.28;;;5.78;;
11303;SDS011;5707;49.588;12.148;2023-02-28T07:19:56;6.28;;;5.78;;
11303;SDS011;5707;49.588;12.148;2023-02-28T07:22:22;5.78;;;5.30;;
11303;SDS011;5707;49.588;12.148;2023-02-28T07:24:47;7.43;;;6.82;;
11303;SDS011;5707;49.588;12.148;2023-02-28T07:27:13;5.32;;;4.82;;
11303;SDS011;5707;49.588;12.148;2023-02-28T07:29:48;6.88;;;6.28;;
11303;SDS011;5707;49.588;12.148;2023-02-28T07:32:17;6.65;;;6.05;;
11303;SDS011;5707;49.588;12.148;2023-02-28T07:34:43;5.80;;;5.28;;
11303;SDS011;5707;49.588;12.148;2023-02-28T07:37:09;6.10;;;5.65;;
11303;SDS011;5707;49.588;12.148;2023-02-28T07:39:35;7.28;;;6.72;;
11303;SDS011;5707;49.588;12.148;2023-02-28T07:42:03;5.85;;;5.35;;
11303;SDS011;5707;49.588;12.148;2023-02-28T07:44:29;6.38;;;5.90;;
11303;SDS011;5707;49.588;12.148;2023-02-28T07:46:55;6.40;;;5.90;;
11303;SDS011;5707;49.588;12.148;2023-02-28T07:49:21;6.13;;;5.72;;
11303;SDS011;5707;49.588;12.148;2023-02-28T07:51:46;6.70;;;6.10;;
11303;SDS011;5707;49.588;12.148;2023-02-28T07:54:12;8.10;;;7.40;;
11303;SDS011;5707;49.588;12.148;2023-02-28T07:56:37;7.50;;;6.90;;
11303;SDS011;5707;49.588;12.148;2023-02-28T07:59:03;7.60;;;6.82;;
11303;SDS011;5707;49.588;12.148;2023-02-28T08:01:28;8.55;;;7.75;;
11303;SDS011;5707;49.588;12.148;2023-02-28T08:03:54;8.10;;;7.30;;
11303;SDS011;5707;49.588;12.148;2023-02-28T08:06:22;7.95;;;5.53;;
11303;SDS011;5707;49.588;12.148;2023-02-28T08:08:49;5.57;;;5.18;;
11303;SDS011;5707;49.588;12.148;2023-02-28T08:11:15;5.20;;;4.75;;
11303;SDS011;5707;49.588;12.148;2023-02-28T08:13:42;5.00;;;4.60;;
11303;SDS011;5707;49.588;12.148;2023-02-28T08:16:09;6.38;;;4.57;;
11303;SDS011;5707;49.588;12.148;2023-02-28T08:18:34;4.97;;;4.28;;
11303;SDS011;5707;49.588;12.148;2023-02-28T08:21:05;5.40;;;4.90;;
11303;SDS011;5707;49.588;12.148;2023-02-28T08:23:31;6.47;;;5.88;;
11303;SDS011;5707;49.588;12.148;2023-02-28T08:25:58;4.70;;;4.30;;
11303;SDS011;5707;49.588;12.148;2023-02-28T08:28:23;4.13;;;3.72;;
11303;SDS011;5707;49.588;12.148;2023-02-28T08:30:49;3.78;;;3.47;;
11303;SDS011;5707;49.588;12.148;2023-02-28T08:33:15;4.40;;;4.03;;
11303;SDS011;5707;49.588;12.148;2023-02-28T08:35:40;5.18;;;4.63;;
11303;SDS011;5707;49.588;12.148;2023-02-28T08:38:06;3.70;;;2.97;;
11303;SDS011;5707;49.588;12.148;2023-02-28T08:40:31;4.93;;;4.30;;
11303;SDS011;5707;49.588;12.148;2023-02-28T08:42:57;3.90;;;3.60;;
11303;SDS011;5707;49.588;12.148;2023-02-28T08:45:23;4.40;;;3.15;;
11303;SDS011;5707;49.588;12.148;2023-02-28T08:47:49;6.60;;;3.95;;
11303;SDS011;5707;49.588;12.148;2023-02-28T08:50:17;4.40;;;4.03;;
11303;SDS011;5707;49.588;12.148;2023-02-28T08:52:43;4.15;;;3.80;;
11303;SDS011;5707;49.588;12.148;2023-02-28T08:55:09;4.45;;;4.13;;
11303;SDS011;5707;49.588;12.148;2023-02-28T08:57:35;4.88;;;4.47;;
11303;SDS011;5707;49.588;12.148;2023-02-28T09:00:01;6.90;;;4.40;;
11303;SDS011;5707;49.588;12.148;2023-02-28T09:02:29;4.70;;;4.30;;
11303;SDS011;5707;49.588;12.148;2023-02-28T09:04:57;3.05;;;2.75;;
11303;SDS011;5707;49.588;12.148;2023-02-28T09:07:24;6.70;;;3.90;;
11303;SDS011;5707;49.588;12.148;2023-02-28T09:09:50;2.00;;;1.88;;
11303;SDS011;5707;49.588;12.148;2023-02-28T09:12:19;5.78;;;4.95;;
11303;SDS011;5707;49.588;12.148;2023-02-28T09:14:45;5.13;;;4.00;;
11303;SDS011;5707;49.588;12.148;2023-02-28T09:17:11;5.45;;;4.95;;
11303;SDS011;5707;49.588;12.148;2023-02-28T09:19:36;4.38;;;3.97;;
11303;SDS011;5707;49.588;12.148;2023-02-28T09:22:02;3.80;;;3.50;;
11303;SDS011;5707;49.588;12.148;2023-02-28T09:24:27;3.60;;;3.30;;
11303;SDS011;5707;49.588;12.148;2023-02-28T09:26:53;6.22;;;4.05;;
11303;SDS011;5707;49.588;12.148;2023-02-28T09:29:19;4.32;;;3.88;;
11303;SDS011;5707;49.588;12.148;2023-02-28T09:31:44;4.45;;;4.05;;
11303;SDS011;5707;49.588;12.148;2023-02-28T09:34:10;4.45;;;4.05;;
11303;SDS011;5707;49.588;12.148;2023-02-28T09:36:35;5.10;;;4.70;;
11303;SDS011;5707;49.588;12.148;2023-02-28T09:39:04;15.80;;;4.78;;
11303;SDS011;5707;49.588;12.148;2023-02-28T09:41:32;4.45;;;4.05;;
11303;SDS011;5707;49.588;12.148;2023-02-28T09:44:13;3.75;;;3.45;;
11303;SDS011;5707;49.588;12.148;2023-02-28T09:46:55;4.00;;;3.55;;
11303;SDS011;5707;49.588;12.148;2023-02-28T09:49:25;6.72;;;3.78;;
11303;SDS011;5707;49.588;12.148;2023-02-28T09:54:26;3.45;;;3.08;;
11303;SDS011;5707;49.588;12.148;2023-02-28T10:05:05;3.80;;;3.50;;
11303;SDS011;5707;49.588;12.148;2023-02-28T10:07:58;6.10;;;4.68;;
11303;SDS011;5707;49.588;12.148;2023-02-28T10:13:14;8.77;;;4.60;;
11303;SDS011;5707;49.588;12.148;2023-02-28T10:15:51;4.88;;;4.45;;
11303;SDS011;5707;49.588;12.148;2023-02-28T10:18:27;7.25;;;4.55;;
11303;SDS011;5707;49.588;12.148;2023-02-28T10:21:05;4.90;;;4.50;;
11303;SDS011;5707;49.588;12.148;2023-02-28T10:23:35;5.13;;;4.72;;
11303;SDS011;5707;49.588;12.148;2023-02-28T10:26:09;5.60;;;5.03;;
11303;SDS011;5707;49.588;12.148;2023-02-28T10:28:38;5.05;;;4.55;;
11303;SDS011;5707;49.588;12.148;2023-02-28T10:31:04;9.45;;;5.30;;
11303;SDS011;5707;49.588;12.148;2023-02-28T10:33:34;6.25;;;5.30;;
11303;SDS011;5707;49.588;12.148;2023-02-28T10:36:01;5.32;;;4.93;;
11303;SDS011;5707;49.588;12.148;2023-02-28T10:38:32;6.28;;;4.90;;
11303;SDS011;5707;49.588;12.148;2023-02-28T10:41:03;4.55;;;4.25;;
11303;SDS011;5707;49.588;12.148;2023-02-28T10:43:31;5.25;;;4.65;;
11303;SDS011;5707;49.588;12.148;2023-02-28T10:45:58;7.00;;;5.38;;
11303;SDS011;5707;49.588;12.148;2023-02-28T10:48:34;6.97;;;5.65;;
11303;SDS011;5707;49.588;12.148;2023-02-28T10:51:01;6.38;;;5.72;;
11303;SDS011;5707;49.588;12.148;2023-02-28T10:56:15;5.55;;;5.05;;
11303;SDS011;5707;49.588;12.148;2023-02-28T11:03:57;5.47;;;4.97;;
11303;SDS011;5707;49.588;12.148;2023-02-28T11:06:30;6.28;;;5.78;;
11303;SDS011;5707;49.588;12.148;2023-02-28T11:09:02;5.80;;;4.60;;
11303;SDS011;5707;49.588;12.148;2023-02-28T11:11:42;5.35;;;4.85;;
11303;SDS011;5707;49.588;12.148;2023-02-28T11:14:18;6.05;;;5.45;;
11303;SDS011;5707;49.588;12.148;2023-02-28T11:16:46;6.80;;;5.75;;
11303;SDS011;5707;49.588;12.148;2023-02-28T11:19:23;6.15;;;5.60;;
11303;SDS011;5707;49.588;12.148;2023-02-28T11:21:55;6.80;;;6.10;;
11303;SDS011;5707;49.588;12.148;2023-02-28T11:24:27;7.28;;;6.68;;
11303;SDS011;5707;49.588;12.148;2023-02-28T11:26:56;5.47;;;5.07;;
11303;SDS011;5707;49.588;12.148;2023-02-28T11:29:23;6.93;;;6.07;;
11303;SDS011;5707;49.588;12.148;2023-02-28T11:32:04;6.03;;;5.53;;
11303;SDS011;5707;49.588;12.148;2023-02-28T11:34:36;6.07;;;4.85;;
11303;SDS011;5707;49.588;12.148;2023-02-28T11:37:04;7.00;;;5.72;;
11303;SDS011;5707;49.588;12.148;2023-02-28T11:39:34;5.75;;;5.25;;
11303;SDS011;5707;49.588;12.148;2023-02-28T11:50:38;6.30;;;5.70;;
11303;SDS011;5707;49.588;12.148;2023-02-28T11:55:44;6.72;;;6.07;;
11303;SDS011;5707;49.588;12.148;2023-02-28T12:08:46;6.05;;;5.55;;
11303;SDS011;5707;49.588;12.148;2023-02-28T12:27:33;5.72;;;5.18;;
11303;SDS011;5707;49.588;12.148;2023-02-28T12:30:24;6.28;;;5.85;;
11303;SDS011;5707;49.588;12.148;2023-02-28T12:32:56;6.43;;;5.93;;
11303;SDS011;5707;49.588;12.148;2023-02-28T12:35:29;5.95;;;5.47;;
11303;SDS011;5707;49.588;12.148;2023-02-28T12:41:16;6.03;;;5.53;;
11303;SDS011;5707;49.588;12.148;2023-02-28T12:43:51;6.20;;;5.70;;
11303;SDS011;5707;49.588;12.148;2023-02-28T12:46:23;6.03;;;5.53;;
11303;SDS011;5707;49.588;12.148;2023-02-28T12:48:56;6.72;;;6.13;;
11303;SDS011;5707;49.588;12.148;2023-02-28T12:51:24;5.82;;;5.32;;
11303;SDS011;5707;49.588;12.148;2023-02-28T12:59:14;7.07;;;6.50;;
11303;SDS011;5707;49.588;12.148;2023-02-28T13:04:57;7.25;;;6.60;;
11303;SDS011;5707;49.588;12.148;2023-02-28T13:10:44;9.43;;;8.52;;
11303;SDS011;5707;49.588;12.148;2023-02-28T13:13:19;10.25;;;9.15;;
11303;SDS011;5707;49.588;12.148;2023-02-28T13:16:00;6.20;;;5.70;;
11303;SDS011;5707;49.588;12.148;2023-02-28T13:18:36;6.75;;;6.18;;
11303;SDS011;5707;49.588;12.148;2023-02-28T13:21:07;6.05;;;5.55;;
11303;SDS011;5707;49.588;12.148;2023-02-28T13:29:02;7.28;;;6.68;;
11303;SDS011;5707;49.588;12.148;2023-02-28T13:34:34;5.85;;;5.43;;
11303;SDS011;5707;49.588;12.148;2023-02-28T13:39:56;7.32;;;6.57;;
11303;SDS011;5707;49.588;12.148;2023-02-28T14:07:03;7.60;;;6.43;;
11303;SDS011;5707;49.588;12.148;2023-02-28T14:09:32;6.57;;;6.07;;
11303;SDS011;5707;49.588;12.148;2023-02-28T14:18:30;6.68;;;6.18;;
11303;SDS011;5707;49.588;12.148;2023-02-28T14:21:10;6.82;;;6.10;;
11303;SDS011;5707;49.588;12.148;2023-02-28T14:23:47;7.20;;;6.50;;
11303;SDS011;5707;49.588;12.148;2023-02-28T14:38:43;7.10;;;6.32;;
11303;SDS011;5707;49.588;12.148;2023-02-28T14:41:14;6.50;;;5.90;;
11303;SDS011;5707;49.588;12.148;2023-02-28T14:44:03;6.60;;;6.10;;
11303;SDS011;5707;49.588;12.148;2023-02-28T14:46:46;5.95;;;5.45;;
11303;SDS011;5707;49.588;12.148;2023-02-28T14:49:18;6.68;;;6.18;;
11303;SDS011;5707;49.588;12.148;2023-02-28T14:51:45;6.60;;;6.05;;
11303;SDS011;5707;49.588;12.148;2023-02-28T14:54:13;6.57;;;6.07;;
11303;SDS011;5707;49.588;12.148;2023-02-28T14:56:40;7.07;;;6.47;;
11303;SDS011;5707;49.588;12.148;2023-02-28T14:59:23;7.85;;;6.80;;
11303;SDS011;5707;49.588;12.148;2023-02-28T15:01:51;6.78;;;6.07;;
11303;SDS011;5707;49.588;12.148;2023-02-28T15:04:25;7.05;;;6.38;;
11303;SDS011;5707;49.588;12.148;2023-02-28T15:07:08;6.97;;;6.30;;
11303;SDS011;5707;49.588;12.148;2023-02-28T15:09:39;7.20;;;6.70;;
11303;SDS011;5707;49.588;12.148;2023-02-28T15:12:05;7.22;;;6.57;;
11303;SDS011;5707;49.588;12.148;2023-02-28T15:14:31;7.45;;;6.70;;
11303;SDS011;5707;49.588;12.148;2023-02-28T15:17:01;5.53;;;5.13;;
11303;SDS011;5707;49.588;12.148;2023-02-28T15:19:34;6.90;;;6.40;;
11303;SDS011;5707;49.588;12.148;2023-02-28T15:22:04;6.90;;;6.40;;
11303;SDS011;5707;49.588;12.148;2023-02-28T15:24:42;6.43;;;5.93;;
11303;SDS011;5707;49.588;12.148;2023-02-28T15:27:12;7.22;;;6.63;;
11303;SDS011;5707;49.588;12.148;2023-02-28T15:29:45;7.18;;;6.57;;
11303;SDS011;5707;49.588;12.148;2023-02-28T15:34:50;6.90;;;6.30;;
11303;SDS011;5707;49.588;12.148;2023-02-28T15:40:10;6.75;;;6.25;;
11303;SDS011;5707;49.588;12.148;2023-02-28T15:42:38;6.93;;;6.32;;
11303;SDS011;5707;49.588;12.148;2023-02-28T15:45:04;7.00;;;6.50;;
11303;SDS011;5707;49.588;12.148;2023-02-28T15:47:30;6.72;;;6.13;;
11303;SDS011;5707;49.588;12.148;2023-02-28T15:50:00;8.15;;;6.78;;
11303;SDS011;5707;49.588;12.148;2023-02-28T15:54:59;6.65;;;5.85;;
11303;SDS011;5707;49.588;12.148;2023-02-28T15:57:39;6.50;;;6.00;;
11303;SDS011;5707;49.588;12.148;2023-02-28T16:00:06;7.10;;;6.50;;
11303;SDS011;5707;49.588;12.148;2023-02-28T16:02:37;7.25;;;6.68;;
11303;SDS011;5707;49.588;12.148;2023-02-28T16:07:39;6.97;;;6.47;;
11303;SDS011;5707;49.588;12.148;2023-02-28T16:10:08;7.57;;;6.85;;
11303;SDS011;5707;49.588;12.148;2023-02-28T16:12:36;7.60;;;6.90;;
11303;SDS011;5707;49.588;12.148;2023-02-28T16:15:05;7.32;;;6.65;;
11303;SDS011;5707;49.588;12.148;2023-02-28T16:17:46;10.00;;;7.00;;
11303;SDS011;5707;49.588;12.148;2023-02-28T16:20:16;8.25;;;7.60;;
11303;SDS011;5707;49.588;12.148;2023-02-28T16:22:44;7.82;;;7.22;;
11303;SDS011;5707;49.588;12.148;2023-02-28T16:25:14;7.88;;;7.10;;
11303;SDS011;5707;49.588;12.148;2023-02-28T16:27:42;7.55;;;6.85;;
11303;SDS011;5707;49.588;12.148;2023-02-28T16:30:19;7.03;;;6.53;;
11303;SDS011;5707;49.588;12.148;2023-02-28T16:32:49;8.20;;;7.45;;
11303;SDS011;5707;49.588;12.148;2023-02-28T16:35:17;7.57;;;6.97;;
11303;SDS011;5707;49.588;12.148;2023-02-28T16:37:44;8.10;;;7.35;;
11303;SDS011;5707;49.588;12.148;2023-02-28T16:40:17;7.07;;;6.47;;
11303;SDS011;5707;49.588;12.148;2023-02-28T16:42:45;8.50;;;7.90;;
11303;SDS011;5707;49.588;12.148;2023-02-28T16:45:21;9.48;;;8.68;;
11303;SDS011;5707;49.588;12.148;2023-02-28T16:47:49;7.95;;;7.25;;
11303;SDS011;5707;49.588;12.148;2023-02-28T16:50:19;9.27;;;8.48;;
11303;SDS011;5707;49.588;12.148;2023-02-28T16:52:47;8.75;;;7.80;;
11303;SDS011;5707;49.588;12.148;2023-02-28T16:55:13;10.95;;;10.02;;
11303;SDS011;5707;49.588;12.148;2023-02-28T16:57:39;9.65;;;8.95;;
11303;SDS011;5707;49.588;12.148;2023-02-28T17:00:05;9.75;;;9.05;;
11303;SDS011;5707;49.588;12.148;2023-02-28T17:02:33;11.73;;;10.88;;
11303;SDS011;5707;49.588;12.148;2023-02-28T17:04:58;15.77;;;14.38;;
11303;SDS011;5707;49.588;12.148;2023-02-28T17:07:24;20.92;;;18.80;;
11303;SDS011;5707;49.588;12.148;2023-02-28T17:09:49;15.82;;;14.27;;
11303;SDS011;5707;49.588;12.148;2023-02-28T17:12:15;10.13;;;9.20;;
11303;SDS011;5707;49.588;12.148;2023-02-28T17:14:41;15.30;;;13.57;;
11303;SDS011;5707;49.588;12.148;2023-02-28T17:17:06;12.68;;;11.13;;
11303;SDS011;5707;49.588;12.148;2023-02-28T17:19:34;10.88;;;9.98;;
11303;SDS011;5707;49.588;12.148;2023-02-28T17:22:01;8.07;;;7.47;;
11303;SDS011;5707;49.588;12.148;2023-02-28T17:24:28;10.57;;;9.65;;
11303;SDS011;5707;49.588;12.148;2023-02-28T17:26:53;9.18;;;8.38;;
11303;SDS011;5707;49.588;12.148;2023-02-28T17:29:19;9.95;;;9.15;;
11303;SDS011;5707;49.588;12.148;2023-02-28T17:31:46;9.80;;;9.10;;
11303;SDS011;5707;49.588;12.148;2023-02-28T17:34:12;8.68;;;7.72;;
11303;SDS011;5707;49.588;12.148;2023-02-28T17:36:43;11.90;;;11.07;;
11303;SDS011;5707;49.588;12.148;2023-02-28T17:39:11;10.52;;;9.73;;
11303;SDS011;5707;49.588;12.148;2023-02-28T17:41:44;9.02;;;8.30;;
11303;SDS011;5707;49.588;12.148;2023-02-28T17:44:10;9.50;;;8.70;;
11303;SDS011;5707;49.588;12.148;2023-02-28T17:46:35;9.57;;;8.88;;
11303;SDS011;5707;49.588;12.148;2023-02-28T17:49:01;10.73;;;9.38;;
11303;SDS011;5707;49.588;12.148;2023-02-28T17:51:27;9.95;;;9.05;;
11303;SDS011;5707;49.588;12.148;2023-02-28T17:53:52;9.32;;;8.63;;
11303;SDS011;5707;49.588;12.148;2023-02-28T17:56:19;9.95;;;9.02;;